MET'MAP v2.0
soon released !

Expected late october,
this new version will be
more efficient, smarter,
and hosted on a brand new
server x3 powerfull...
...and still free !


Not compatible ?
Try the mobile version !

LOG IN : | Subscribe | Disclaimer | Who is Orbifly ? |
ICAO code :
Legend : VFR Marginal VFR IFR Intensive IFR Very Intensive IFR
Visi :
Ceiling :
>= 8 km
>= 3000ft
5 to 8 km
1000 to 3000 ft
1500m to 5 km
500 to 1000 ft
800 to 1500m
200 to 500 ft
< 800m
< 200 ft

METAR - EGPH Edinburgh - 28 Feb 2020 06:39 UTC - Data Source NOAA   


- Airport Elevation : 135 ft
- IATA code : EDI
- No reported NOTAMs.


EGPH - Edinburgh

Latest METAR recorded : 2015/08/11 07:50 EGPH 110750Z 25010KT 9999 FEW015 SCT040 14/11 Q1017
TAF TAF EGPH
Valid from the 28 at 00:00 until the 29 at 00:00 UTC


272257Z 2800/2824 23009KT 9999 FEW030
PROB30
TEMPO 2800/2802 BKN014
BECMG 2808/2811 15010KT
TEMPO 2809/2818 5000 RA BKN012
PROB40
TEMPO 2812/2818 3000 +RADZ RASN BKN005
BECMG 2814/2817 07008KT
TEMPO 2818/2824 BKN012
PROB40
TEMPO 2818/2824 2000 DZRA BR BKN003

Source NOAA
ATIS : +44 131 339 2823


MET'MAP, your aeronautical weather chart ! - Copyright ORBIFLY December 2007

Programming & Development : Alexandra Zaïnal
Co-Developer : Marc-Olivier Méhu
Technical & hardware support : Manuel Goepfert
Concept & Financing : Baudouin d'Aumeries